sensor_id;sensor_type;location;lat;lon;timestamp;P1;durP1;ratioP1;P2;durP2;ratioP2
65230;SDS011;51813;40.666;16.602;2024-02-21T00:00:45;8.90;;;7.50;;
65230;SDS011;51813;40.666;16.602;2024-02-21T00:03:10;9.57;;;7.30;;
65230;SDS011;51813;40.666;16.602;2024-02-21T00:05:36;10.35;;;7.47;;
65230;SDS011;51813;40.666;16.602;2024-02-21T00:08:02;9.10;;;7.00;;
65230;SDS011;51813;40.666;16.602;2024-02-21T00:10:28;9.05;;;7.20;;
65230;SDS011;51813;40.666;16.602;2024-02-21T00:12:54;10.30;;;7.25;;
65230;SDS011;51813;40.666;16.602;2024-02-21T00:15:20;7.75;;;6.32;;
65230;SDS011;51813;40.666;16.602;2024-02-21T00:17:46;8.82;;;6.57;;
65230;SDS011;51813;40.666;16.602;2024-02-21T00:20:13;10.20;;;6.97;;
65230;SDS011;51813;40.666;16.602;2024-02-21T00:22:38;9.30;;;6.57;;
65230;SDS011;51813;40.666;16.602;2024-02-21T00:25:04;8.75;;;6.05;;
65230;SDS011;51813;40.666;16.602;2024-02-21T00:27:30;8.80;;;6.20;;
65230;SDS011;51813;40.666;16.602;2024-02-21T00:29:57;9.32;;;6.43;;
65230;SDS011;51813;40.666;16.602;2024-02-21T00:32:23;7.93;;;6.20;;
65230;SDS011;51813;40.666;16.602;2024-02-21T00:34:48;8.10;;;6.45;;
65230;SDS011;51813;40.666;16.602;2024-02-21T00:37:14;7.35;;;5.88;;
65230;SDS011;51813;40.666;16.602;2024-02-21T00:39:40;9.05;;;5.88;;
65230;SDS011;51813;40.666;16.602;2024-02-21T00:42:07;8.52;;;6.57;;
65230;SDS011;51813;40.666;16.602;2024-02-21T00:44:33;8.73;;;6.15;;
65230;SDS011;51813;40.666;16.602;2024-02-21T00:46:58;7.22;;;5.72;;
65230;SDS011;51813;40.666;16.602;2024-02-21T00:49:24;8.35;;;5.95;;
65230;SDS011;51813;40.666;16.602;2024-02-21T00:51:50;8.35;;;6.43;;
65230;SDS011;51813;40.666;16.602;2024-02-21T00:54:15;8.00;;;5.80;;
65230;SDS011;51813;40.666;16.602;2024-02-21T00:56:42;7.18;;;5.80;;
65230;SDS011;51813;40.666;16.602;2024-02-21T00:59:08;9.32;;;6.10;;
65230;SDS011;51813;40.666;16.602;2024-02-21T01:01:33;8.05;;;5.72;;
65230;SDS011;51813;40.666;16.602;2024-02-21T01:03:59;6.65;;;5.13;;
65230;SDS011;51813;40.666;16.602;2024-02-21T01:06:25;11.27;;;8.07;;
65230;SDS011;51813;40.666;16.602;2024-02-21T01:08:51;9.43;;;6.78;;
65230;SDS011;51813;40.666;16.602;2024-02-21T01:11:16;9.10;;;6.38;;
65230;SDS011;51813;40.666;16.602;2024-02-21T01:13:42;7.45;;;5.75;;
65230;SDS011;51813;40.666;16.602;2024-02-21T01:16:08;8.30;;;6.25;;
65230;SDS011;51813;40.666;16.602;2024-02-21T01:18:34;9.75;;;6.35;;
65230;SDS011;51813;40.666;16.602;2024-02-21T01:20:59;9.25;;;6.53;;
65230;SDS011;51813;40.666;16.602;2024-02-21T01:23:25;7.45;;;5.30;;
65230;SDS011;51813;40.666;16.602;2024-02-21T01:25:51;8.55;;;6.10;;
65230;SDS011;51813;40.666;16.602;2024-02-21T01:28:17;7.63;;;5.30;;
65230;SDS011;51813;40.666;16.602;2024-02-21T01:30:43;8.70;;;6.00;;
65230;SDS011;51813;40.666;16.602;2024-02-21T01:33:09;6.43;;;4.93;;
65230;SDS011;51813;40.666;16.602;2024-02-21T01:35:35;6.80;;;5.03;;
65230;SDS011;51813;40.666;16.602;2024-02-21T01:38:02;6.88;;;5.07;;
65230;SDS011;51813;40.666;16.602;2024-02-21T01:40:27;7.63;;;5.28;;
65230;SDS011;51813;40.666;16.602;2024-02-21T01:42:54;6.72;;;5.10;;
65230;SDS011;51813;40.666;16.602;2024-02-21T01:45:21;7.60;;;5.43;;
65230;SDS011;51813;40.666;16.602;2024-02-21T01:47:47;6.00;;;4.57;;
65230;SDS011;51813;40.666;16.602;2024-02-21T01:50:13;5.82;;;4.50;;
65230;SDS011;51813;40.666;16.602;2024-02-21T01:52:41;6.47;;;4.35;;
65230;SDS011;51813;40.666;16.602;2024-02-21T01:55:10;7.30;;;4.35;;
65230;SDS011;51813;40.666;16.602;2024-02-21T01:57:38;5.68;;;4.20;;
65230;SDS011;51813;40.666;16.602;2024-02-21T02:00:10;5.47;;;4.30;;
65230;SDS011;51813;40.666;16.602;2024-02-21T02:02:38;7.15;;;4.80;;
65230;SDS011;51813;40.666;16.602;2024-02-21T02:05:05;6.05;;;4.72;;
65230;SDS011;51813;40.666;16.602;2024-02-21T02:07:32;6.05;;;4.53;;
65230;SDS011;51813;40.666;16.602;2024-02-21T02:09:58;6.05;;;4.63;;
65230;SDS011;51813;40.666;16.602;2024-02-21T02:12:24;6.18;;;4.38;;
65230;SDS011;51813;40.666;16.602;2024-02-21T02:14:59;5.97;;;4.25;;
65230;SDS011;51813;40.666;16.602;2024-02-21T02:17:25;6.13;;;4.55;;
65230;SDS011;51813;40.666;16.602;2024-02-21T02:19:51;5.97;;;4.38;;
65230;SDS011;51813;40.666;16.602;2024-02-21T02:22:18;6.18;;;4.30;;
65230;SDS011;51813;40.666;16.602;2024-02-21T02:24:47;5.97;;;4.47;;
65230;SDS011;51813;40.666;16.602;2024-02-21T02:27:13;5.30;;;3.90;;
65230;SDS011;51813;40.666;16.602;2024-02-21T02:29:39;5.53;;;4.13;;
65230;SDS011;51813;40.666;16.602;2024-02-21T02:32:05;7.40;;;4.63;;
65230;SDS011;51813;40.666;16.602;2024-02-21T02:34:31;5.93;;;4.55;;
65230;SDS011;51813;40.666;16.602;2024-02-21T02:36:56;6.30;;;4.57;;
65230;SDS011;51813;40.666;16.602;2024-02-21T02:39:22;7.22;;;4.70;;
65230;SDS011;51813;40.666;16.602;2024-02-21T02:41:48;6.97;;;4.20;;
65230;SDS011;51813;40.666;16.602;2024-02-21T02:44:13;6.30;;;4.07;;
65230;SDS011;51813;40.666;16.602;2024-02-21T02:46:42;5.53;;;3.63;;
65230;SDS011;51813;40.666;16.602;2024-02-21T02:49:08;5.70;;;3.92;;
65230;SDS011;51813;40.666;16.602;2024-02-21T02:51:34;5.60;;;3.95;;
65230;SDS011;51813;40.666;16.602;2024-02-21T02:53:59;5.80;;;4.15;;
65230;SDS011;51813;40.666;16.602;2024-02-21T02:56:25;6.88;;;4.80;;
65230;SDS011;51813;40.666;16.602;2024-02-21T02:58:51;5.45;;;4.15;;
65230;SDS011;51813;40.666;16.602;2024-02-21T03:01:16;5.80;;;4.20;;
65230;SDS011;51813;40.666;16.602;2024-02-21T03:03:42;5.22;;;3.90;;
65230;SDS011;51813;40.666;16.602;2024-02-21T03:06:08;6.50;;;4.45;;
65230;SDS011;51813;40.666;16.602;2024-02-21T03:08:33;5.57;;;3.95;;
65230;SDS011;51813;40.666;16.602;2024-02-21T03:10:59;6.63;;;4.63;;
65230;SDS011;51813;40.666;16.602;2024-02-21T03:13:25;4.93;;;3.70;;
65230;SDS011;51813;40.666;16.602;2024-02-21T03:15:51;6.10;;;4.25;;
65230;SDS011;51813;40.666;16.602;2024-02-21T03:18:17;6.90;;;4.82;;
65230;SDS011;51813;40.666;16.602;2024-02-21T03:20:43;6.00;;;4.65;;
65230;SDS011;51813;40.666;16.602;2024-02-21T03:23:08;5.72;;;4.05;;
65230;SDS011;51813;40.666;16.602;2024-02-21T03:25:34;6.18;;;3.97;;
65230;SDS011;51813;40.666;16.602;2024-02-21T03:27:59;5.72;;;4.07;;
65230;SDS011;51813;40.666;16.602;2024-02-21T03:30:25;6.05;;;4.65;;
65230;SDS011;51813;40.666;16.602;2024-02-21T03:32:51;6.60;;;4.60;;
65230;SDS011;51813;40.666;16.602;2024-02-21T03:35:16;6.72;;;4.60;;
65230;SDS011;51813;40.666;16.602;2024-02-21T03:37:44;7.90;;;4.70;;
65230;SDS011;51813;40.666;16.602;2024-02-21T03:40:10;7.32;;;5.00;;
65230;SDS011;51813;40.666;16.602;2024-02-21T03:42:37;8.98;;;5.97;;
65230;SDS011;51813;40.666;16.602;2024-02-21T03:45:03;8.23;;;5.78;;
65230;SDS011;51813;40.666;16.602;2024-02-21T03:47:29;9.52;;;5.90;;
65230;SDS011;51813;40.666;16.602;2024-02-21T03:49:55;8.98;;;5.93;;
65230;SDS011;51813;40.666;16.602;2024-02-21T03:52:21;10.30;;;5.90;;
65230;SDS011;51813;40.666;16.602;2024-02-21T03:54:47;8.77;;;5.70;;
65230;SDS011;51813;40.666;16.602;2024-02-21T03:57:13;9.70;;;6.35;;
65230;SDS011;51813;40.666;16.602;2024-02-21T03:59:38;9.27;;;5.95;;
65230;SDS011;51813;40.666;16.602;2024-02-21T04:02:05;8.23;;;5.60;;
65230;SDS011;51813;40.666;16.602;2024-02-21T04:04:33;9.27;;;6.50;;
65230;SDS011;51813;40.666;16.602;2024-02-21T04:07:03;10.55;;;6.28;;
65230;SDS011;51813;40.666;16.602;2024-02-21T04:09:35;9.93;;;6.30;;
65230;SDS011;51813;40.666;16.602;2024-02-21T04:12:00;8.98;;;6.05;;
65230;SDS011;51813;40.666;16.602;2024-02-21T04:14:26;9.55;;;6.25;;
65230;SDS011;51813;40.666;16.602;2024-02-21T04:16:52;10.43;;;6.75;;
65230;SDS011;51813;40.666;16.602;2024-02-21T04:19:17;9.65;;;6.10;;
65230;SDS011;51813;40.666;16.602;2024-02-21T04:21:43;10.32;;;6.45;;
65230;SDS011;51813;40.666;16.602;2024-02-21T04:24:09;9.10;;;5.75;;
65230;SDS011;51813;40.666;16.602;2024-02-21T04:26:35;9.07;;;5.82;;
65230;SDS011;51813;40.666;16.602;2024-02-21T04:29:01;8.18;;;5.18;;
65230;SDS011;51813;40.666;16.602;2024-02-21T04:31:26;7.82;;;5.45;;
65230;SDS011;51813;40.666;16.602;2024-02-21T04:33:52;7.90;;;5.38;;
65230;SDS011;51813;40.666;16.602;2024-02-21T04:36:18;9.52;;;6.47;;
65230;SDS011;51813;40.666;16.602;2024-02-21T04:38:44;8.05;;;5.13;;
65230;SDS011;51813;40.666;16.602;2024-02-21T04:41:10;10.48;;;6.57;;
65230;SDS011;51813;40.666;16.602;2024-02-21T04:43:36;9.07;;;5.97;;
65230;SDS011;51813;40.666;16.602;2024-02-21T04:46:01;9.73;;;6.85;;
65230;SDS011;51813;40.666;16.602;2024-02-21T04:48:27;10.13;;;6.38;;
65230;SDS011;51813;40.666;16.602;2024-02-21T04:50:53;10.05;;;6.53;;
65230;SDS011;51813;40.666;16.602;2024-02-21T04:53:19;8.23;;;5.32;;
65230;SDS011;51813;40.666;16.602;2024-02-21T04:55:44;10.38;;;6.40;;
65230;SDS011;51813;40.666;16.602;2024-02-21T04:58:10;10.07;;;6.75;;
65230;SDS011;51813;40.666;16.602;2024-02-21T05:00:35;8.05;;;5.50;;
65230;SDS011;51813;40.666;16.602;2024-02-21T05:03:01;8.80;;;5.70;;
65230;SDS011;51813;40.666;16.602;2024-02-21T05:05:27;8.63;;;6.30;;
65230;SDS011;51813;40.666;16.602;2024-02-21T05:07:53;8.73;;;5.47;;
65230;SDS011;51813;40.666;16.602;2024-02-21T05:10:18;8.38;;;5.68;;
65230;SDS011;51813;40.666;16.602;2024-02-21T05:12:45;8.73;;;5.80;;
65230;SDS011;51813;40.666;16.602;2024-02-21T05:15:11;8.38;;;5.80;;
65230;SDS011;51813;40.666;16.602;2024-02-21T05:17:36;9.07;;;5.75;;
65230;SDS011;51813;40.666;16.602;2024-02-21T05:20:02;8.55;;;5.60;;
65230;SDS011;51813;40.666;16.602;2024-02-21T05:22:28;7.57;;;5.45;;
65230;SDS011;51813;40.666;16.602;2024-02-21T05:24:54;8.52;;;5.88;;
65230;SDS011;51813;40.666;16.602;2024-02-21T05:27:20;8.20;;;5.85;;
65230;SDS011;51813;40.666;16.602;2024-02-21T05:29:45;8.05;;;5.53;;
65230;SDS011;51813;40.666;16.602;2024-02-21T05:32:13;8.85;;;5.82;;
65230;SDS011;51813;40.666;16.602;2024-02-21T05:34:38;8.38;;;5.07;;
65230;SDS011;51813;40.666;16.602;2024-02-21T05:37:04;8.25;;;5.55;;
65230;SDS011;51813;40.666;16.602;2024-02-21T05:39:30;8.23;;;6.40;;
65230;SDS011;51813;40.666;16.602;2024-02-21T05:41:56;8.65;;;6.40;;
65230;SDS011;51813;40.666;16.602;2024-02-21T05:44:21;8.75;;;6.03;;
65230;SDS011;51813;40.666;16.602;2024-02-21T05:46:47;9.38;;;6.28;;
65230;SDS011;51813;40.666;16.602;2024-02-21T05:49:13;8.93;;;6.25;;
65230;SDS011;51813;40.666;16.602;2024-02-21T05:51:39;7.93;;;5.70;;
65230;SDS011;51813;40.666;16.602;2024-02-21T05:54:05;9.20;;;6.50;;
65230;SDS011;51813;40.666;16.602;2024-02-21T05:56:32;10.48;;;6.78;;
65230;SDS011;51813;40.666;16.602;2024-02-21T05:58:58;9.00;;;6.13;;
65230;SDS011;51813;40.666;16.602;2024-02-21T06:01:23;9.07;;;6.25;;
65230;SDS011;51813;40.666;16.602;2024-02-21T06:03:50;9.13;;;6.38;;
65230;SDS011;51813;40.666;16.602;2024-02-21T06:06:16;9.43;;;6.18;;
65230;SDS011;51813;40.666;16.602;2024-02-21T06:08:42;9.90;;;7.10;;
65230;SDS011;51813;40.666;16.602;2024-02-21T06:11:07;9.05;;;6.15;;
65230;SDS011;51813;40.666;16.602;2024-02-21T06:13:33;9.57;;;6.25;;
65230;SDS011;51813;40.666;16.602;2024-02-21T06:16:03;9.82;;;6.85;;
65230;SDS011;51813;40.666;16.602;2024-02-21T06:18:29;9.68;;;6.70;;
65230;SDS011;51813;40.666;16.602;2024-02-21T06:20:55;9.20;;;6.40;;
65230;SDS011;51813;40.666;16.602;2024-02-21T06:23:20;9.70;;;6.57;;
65230;SDS011;51813;40.666;16.602;2024-02-21T06:25:46;9.93;;;6.00;;
65230;SDS011;51813;40.666;16.602;2024-02-21T06:28:12;10.73;;;6.55;;
65230;SDS011;51813;40.666;16.602;2024-02-21T06:30:39;10.43;;;6.80;;
65230;SDS011;51813;40.666;16.602;2024-02-21T06:33:05;9.30;;;6.28;;
65230;SDS011;51813;40.666;16.602;2024-02-21T06:35:32;9.75;;;6.53;;
65230;SDS011;51813;40.666;16.602;2024-02-21T06:37:58;10.52;;;7.00;;
65230;SDS011;51813;40.666;16.602;2024-02-21T06:40:24;10.05;;;6.65;;
65230;SDS011;51813;40.666;16.602;2024-02-21T06:42:50;9.85;;;5.88;;
65230;SDS011;51813;40.666;16.602;2024-02-21T06:45:16;9.70;;;6.22;;
65230;SDS011;51813;40.666;16.602;2024-02-21T06:47:41;11.00;;;6.47;;
65230;SDS011;51813;40.666;16.602;2024-02-21T06:50:07;9.32;;;6.43;;
65230;SDS011;51813;40.666;16.602;2024-02-21T06:52:34;9.38;;;6.43;;
65230;SDS011;51813;40.666;16.602;2024-02-21T06:55:00;8.43;;;5.80;;
65230;SDS011;51813;40.666;16.602;2024-02-21T06:57:26;10.40;;;7.10;;
65230;SDS011;51813;40.666;16.602;2024-02-21T06:59:51;7.32;;;5.13;;
65230;SDS011;51813;40.666;16.602;2024-02-21T07:02:17;8.05;;;5.68;;
65230;SDS011;51813;40.666;16.602;2024-02-21T07:04:43;8.70;;;5.72;;
65230;SDS011;51813;40.666;16.602;2024-02-21T07:07:08;9.73;;;6.10;;
65230;SDS011;51813;40.666;16.602;2024-02-21T07:09:34;8.75;;;6.10;;
65230;SDS011;51813;40.666;16.602;2024-02-21T07:12:00;8.23;;;5.53;;
65230;SDS011;51813;40.666;16.602;2024-02-21T07:14:27;9.70;;;5.63;;
65230;SDS011;51813;40.666;16.602;2024-02-21T07:16:53;7.72;;;5.35;;
65230;SDS011;51813;40.666;16.602;2024-02-21T07:19:19;8.68;;;6.03;;
65230;SDS011;51813;40.666;16.602;2024-02-21T07:21:45;8.88;;;5.93;;
65230;SDS011;51813;40.666;16.602;2024-02-21T07:24:10;9.20;;;6.10;;
65230;SDS011;51813;40.666;16.602;2024-02-21T07:26:37;7.80;;;5.60;;
65230;SDS011;51813;40.666;16.602;2024-02-21T07:29:05;9.10;;;5.90;;
65230;SDS011;51813;40.666;16.602;2024-02-21T07:31:31;7.57;;;5.15;;
65230;SDS011;51813;40.666;16.602;2024-02-21T07:34:03;8.90;;;5.70;;
65230;SDS011;51813;40.666;16.602;2024-02-21T07:36:29;7.93;;;6.03;;
65230;SDS011;51813;40.666;16.602;2024-02-21T07:38:58;7.20;;;5.32;;
65230;SDS011;51813;40.666;16.602;2024-02-21T07:41:25;7.60;;;5.20;;
65230;SDS011;51813;40.666;16.602;2024-02-21T07:43:51;7.50;;;5.32;;
65230;SDS011;51813;40.666;16.602;2024-02-21T07:46:17;7.78;;;4.60;;
65230;SDS011;51813;40.666;16.602;2024-02-21T07:48:44;8.10;;;5.18;;
65230;SDS011;51813;40.666;16.602;2024-02-21T07:51:10;7.72;;;5.10;;
65230;SDS011;51813;40.666;16.602;2024-02-21T07:53:36;8.18;;;5.45;;
65230;SDS011;51813;40.666;16.602;2024-02-21T07:56:03;8.23;;;4.90;;
65230;SDS011;51813;40.666;16.602;2024-02-21T07:58:29;8.18;;;5.40;;
65230;SDS011;51813;40.666;16.602;2024-02-21T08:00:55;7.05;;;4.65;;
65230;SDS011;51813;40.666;16.602;2024-02-21T08:03:21;6.07;;;4.47;;
65230;SDS011;51813;40.666;16.602;2024-02-21T08:05:47;7.18;;;4.68;;
65230;SDS011;51813;40.666;16.602;2024-02-21T08:08:13;6.00;;;4.45;;
65230;SDS011;51813;40.666;16.602;2024-02-21T08:10:43;6.93;;;5.03;;
65230;SDS011;51813;40.666;16.602;2024-02-21T08:13:09;8.18;;;4.80;;
65230;SDS011;51813;40.666;16.602;2024-02-21T08:15:34;6.43;;;4.68;;
65230;SDS011;51813;40.666;16.602;2024-02-21T08:18:00;6.93;;;4.55;;
65230;SDS011;51813;40.666;16.602;2024-02-21T08:20:27;7.80;;;4.90;;
65230;SDS011;51813;40.666;16.602;2024-02-21T08:22:52;6.50;;;4.25;;
65230;SDS011;51813;40.666;16.602;2024-02-21T08:25:18;5.43;;;3.72;;
65230;SDS011;51813;40.666;16.602;2024-02-21T08:27:44;7.90;;;4.47;;
65230;SDS011;51813;40.666;16.602;2024-02-21T08:30:10;8.20;;;5.00;;
65230;SDS011;51813;40.666;16.602;2024-02-21T08:32:36;6.88;;;4.60;;
65230;SDS011;51813;40.666;16.602;2024-02-21T08:35:02;7.07;;;4.70;;
65230;SDS011;51813;40.666;16.602;2024-02-21T08:37:28;5.97;;;4.35;;
65230;SDS011;51813;40.666;16.602;2024-02-21T08:39:54;6.60;;;4.20;;
65230;SDS011;51813;40.666;16.602;2024-02-21T08:42:20;7.72;;;4.95;;
65230;SDS011;51813;40.666;16.602;2024-02-21T08:44:45;7.30;;;3.70;;
65230;SDS011;51813;40.666;16.602;2024-02-21T08:47:11;6.55;;;4.72;;
65230;SDS011;51813;40.666;16.602;2024-02-21T08:49:37;6.78;;;4.53;;
65230;SDS011;51813;40.666;16.602;2024-02-21T08:52:03;6.85;;;4.40;;
65230;SDS011;51813;40.666;16.602;2024-02-21T08:54:29;6.53;;;4.10;;
65230;SDS011;51813;40.666;16.602;2024-02-21T08:56:54;5.93;;;4.45;;
65230;SDS011;51813;40.666;16.602;2024-02-21T08:59:21;6.22;;;4.53;;
65230;SDS011;51813;40.666;16.602;2024-02-21T09:01:47;5.95;;;4.20;;
65230;SDS011;51813;40.666;16.602;2024-02-21T09:04:13;6.53;;;4.20;;
65230;SDS011;51813;40.666;16.602;2024-02-21T09:06:38;6.03;;;4.15;;
65230;SDS011;51813;40.666;16.602;2024-02-21T09:09:07;6.03;;;3.97;;
65230;SDS011;51813;40.666;16.602;2024-02-21T09:11:35;8.30;;;4.70;;
65230;SDS011;51813;40.666;16.602;2024-02-21T09:14:00;5.97;;;3.83;;
65230;SDS011;51813;40.666;16.602;2024-02-21T09:16:29;5.22;;;3.60;;
65230;SDS011;51813;40.666;16.602;2024-02-21T09:18:58;6.18;;;4.25;;
65230;SDS011;51813;40.666;16.602;2024-02-21T09:21:24;5.38;;;4.00;;
65230;SDS011;51813;40.666;16.602;2024-02-21T09:23:50;5.85;;;4.20;;
65230;SDS011;51813;40.666;16.602;2024-02-21T09:26:15;7.32;;;4.80;;
65230;SDS011;51813;40.666;16.602;2024-02-21T09:28:42;8.32;;;4.72;;
65230;SDS011;51813;40.666;16.602;2024-02-21T09:31:09;7.75;;;5.15;;
65230;SDS011;51813;40.666;16.602;2024-02-21T09:33:35;7.15;;;4.53;;
65230;SDS011;51813;40.666;16.602;2024-02-21T09:36:00;7.47;;;5.00;;
65230;SDS011;51813;40.666;16.602;2024-02-21T09:38:26;7.15;;;5.07;;
65230;SDS011;51813;40.666;16.602;2024-02-21T09:40:59;6.32;;;4.78;;
65230;SDS011;51813;40.666;16.602;2024-02-21T09:43:29;6.75;;;4.70;;
65230;SDS011;51813;40.666;16.602;2024-02-21T09:45:56;8.30;;;4.97;;
65230;SDS011;51813;40.666;16.602;2024-02-21T09:51:28;6.68;;;4.50;;
65230;SDS011;51813;40.666;16.602;2024-02-21T09:53:57;5.93;;;4.80;;
65230;SDS011;51813;40.666;16.602;2024-02-21T09:56:23;5.60;;;4.10;;
65230;SDS011;51813;40.666;16.602;2024-02-21T09:58:49;6.10;;;4.75;;
65230;SDS011;51813;40.666;16.602;2024-02-21T10:01:14;5.38;;;4.13;;
65230;SDS011;51813;40.666;16.602;2024-02-21T10:03:41;7.53;;;4.55;;
65230;SDS011;51813;40.666;16.602;2024-02-21T10:06:08;7.10;;;4.88;;
65230;SDS011;51813;40.666;16.602;2024-02-21T10:08:35;6.38;;;4.90;;
65230;SDS011;51813;40.666;16.602;2024-02-21T10:11:00;6.15;;;4.53;;
65230;SDS011;51813;40.666;16.602;2024-02-21T10:13:30;6.40;;;4.50;;
65230;SDS011;51813;40.666;16.602;2024-02-21T10:16:08;6.00;;;4.28;;
65230;SDS011;51813;40.666;16.602;2024-02-21T10:18:34;7.10;;;4.75;;
65230;SDS011;51813;40.666;16.602;2024-02-21T10:21:04;9.07;;;4.20;;
65230;SDS011;51813;40.666;16.602;2024-02-21T10:23:44;8.95;;;5.07;;
65230;SDS011;51813;40.666;16.602;2024-02-21T10:26:10;6.50;;;4.70;;
65230;SDS011;51813;40.666;16.602;2024-02-21T10:28:36;8.13;;;5.32;;
65230;SDS011;51813;40.666;16.602;2024-02-21T10:31:25;6.65;;;5.05;;
65230;SDS011;51813;40.666;16.602;2024-02-21T10:33:59;5.80;;;4.70;;
65230;SDS011;51813;40.666;16.602;2024-02-21T10:36:29;5.82;;;4.60;;
65230;SDS011;51813;40.666;16.602;2024-02-21T10:38:55;6.43;;;4.47;;
65230;SDS011;51813;40.666;16.602;2024-02-21T10:41:21;6.50;;;4.85;;
65230;SDS011;51813;40.666;16.602;2024-02-21T10:43:52;6.45;;;4.78;;
65230;SDS011;51813;40.666;16.602;2024-02-21T10:46:20;6.28;;;5.05;;
65230;SDS011;51813;40.666;16.602;2024-02-21T10:48:59;8.10;;;5.00;;
65230;SDS011;51813;40.666;16.602;2024-02-21T10:51:35;7.28;;;4.80;;
65230;SDS011;51813;40.666;16.602;2024-02-21T10:54:29;8.35;;;5.60;;
65230;SDS011;51813;40.666;16.602;2024-02-21T10:57:09;8.15;;;5.18;;
65230;SDS011;51813;40.666;16.602;2024-02-21T10:59:37;7.15;;;5.20;;
65230;SDS011;51813;40.666;16.602;2024-02-21T11:02:05;6.85;;;4.57;;
65230;SDS011;51813;40.666;16.602;2024-02-21T11:04:31;7.65;;;5.05;;
65230;SDS011;51813;40.666;16.602;2024-02-21T11:07:05;7.40;;;5.50;;
65230;SDS011;51813;40.666;16.602;2024-02-21T11:09:31;7.47;;;5.25;;
65230;SDS011;51813;40.666;16.602;2024-02-21T11:11:58;6.40;;;4.72;;
65230;SDS011;51813;40.666;16.602;2024-02-21T11:14:27;7.18;;;5.03;;
65230;SDS011;51813;40.666;16.602;2024-02-21T11:16:53;6.55;;;4.97;;
65230;SDS011;51813;40.666;16.602;2024-02-21T11:19:27;6.53;;;4.70;;
65230;SDS011;51813;40.666;16.602;2024-02-21T11:21:54;7.80;;;5.60;;
65230;SDS011;51813;40.666;16.602;2024-02-21T11:24:29;7.18;;;5.30;;
65230;SDS011;51813;40.666;16.602;2024-02-21T11:26:56;6.80;;;4.70;;
65230;SDS011;51813;40.666;16.602;2024-02-21T11:29:33;7.10;;;5.20;;
65230;SDS011;51813;40.666;16.602;2024-02-21T11:32:06;7.97;;;5.55;;
65230;SDS011;51813;40.666;16.602;2024-02-21T11:34:35;9.27;;;5.30;;
65230;SDS011;51813;40.666;16.602;2024-02-21T11:37:01;7.30;;;5.25;;
65230;SDS011;51813;40.666;16.602;2024-02-21T11:39:26;8.00;;;5.68;;
65230;SDS011;51813;40.666;16.602;2024-02-21T11:42:05;6.32;;;4.75;;
65230;SDS011;51813;40.666;16.602;2024-02-21T11:44:33;7.07;;;4.65;;
65230;SDS011;51813;40.666;16.602;2024-02-21T11:47:00;7.72;;;5.05;;
65230;SDS011;51813;40.666;16.602;2024-02-21T11:49:28;7.03;;;4.82;;
65230;SDS011;51813;40.666;16.602;2024-02-21T11:51:57;7.95;;;5.43;;
65230;SDS011;51813;40.666;16.602;2024-02-21T11:54:28;8.30;;;5.30;;
65230;SDS011;51813;40.666;16.602;2024-02-21T11:56:55;6.47;;;4.70;;
65230;SDS011;51813;40.666;16.602;2024-02-21T11:59:20;6.80;;;5.00;;
65230;SDS011;51813;40.666;16.602;2024-02-21T12:01:46;7.32;;;4.88;;
65230;SDS011;51813;40.666;16.602;2024-02-21T12:04:13;6.57;;;4.75;;
65230;SDS011;51813;40.666;16.602;2024-02-21T12:06:39;6.90;;;5.13;;
65230;SDS011;51813;40.666;16.602;2024-02-21T12:09:07;6.97;;;5.15;;
65230;SDS011;51813;40.666;16.602;2024-02-21T12:11:35;6.30;;;4.90;;
65230;SDS011;51813;40.666;16.602;2024-02-21T12:14:01;6.82;;;4.90;;
65230;SDS011;51813;40.666;16.602;2024-02-21T12:16:30;7.57;;;5.03;;
65230;SDS011;51813;40.666;16.602;2024-02-21T12:18:56;6.85;;;4.65;;
65230;SDS011;51813;40.666;16.602;2024-02-21T12:21:40;7.38;;;4.72;;
65230;SDS011;51813;40.666;16.602;2024-02-21T12:24:13;7.43;;;5.10;;
65230;SDS011;51813;40.666;16.602;2024-02-21T12:26:52;6.78;;;4.65;;
65230;SDS011;51813;40.666;16.602;2024-02-21T12:29:21;6.25;;;4.80;;
65230;SDS011;51813;40.666;16.602;2024-02-21T12:31:48;7.05;;;5.07;;
65230;SDS011;51813;40.666;16.602;2024-02-21T12:34:14;7.07;;;4.75;;
65230;SDS011;51813;40.666;16.602;2024-02-21T12:36:41;7.00;;;4.90;;
65230;SDS011;51813;40.666;16.602;2024-02-21T12:39:09;7.20;;;4.53;;
65230;SDS011;51813;40.666;16.602;2024-02-21T12:41:37;5.80;;;4.35;;
65230;SDS011;51813;40.666;16.602;2024-02-21T12:44:07;6.68;;;4.90;;
65230;SDS011;51813;40.666;16.602;2024-02-21T12:46:33;6.82;;;4.65;;
65230;SDS011;51813;40.666;16.602;2024-02-21T12:49:02;7.05;;;4.68;;
65230;SDS011;51813;40.666;16.602;2024-02-21T12:51:29;7.15;;;5.38;;
65230;SDS011;51813;40.666;16.602;2024-02-21T12:53:58;5.88;;;4.22;;
65230;SDS011;51813;40.666;16.602;2024-02-21T12:56:24;7.28;;;4.93;;
65230;SDS011;51813;40.666;16.602;2024-02-21T12:58:52;6.40;;;4.82;;
65230;SDS011;51813;40.666;16.602;2024-02-21T13:01:18;7.15;;;4.50;;
65230;SDS011;51813;40.666;16.602;2024-02-21T13:03:44;6.50;;;4.70;;
65230;SDS011;51813;40.666;16.602;2024-02-21T13:06:11;6.55;;;4.82;;
65230;SDS011;51813;40.666;16.602;2024-02-21T13:08:37;5.97;;;4.53;;
65230;SDS011;51813;40.666;16.602;2024-02-21T13:11:03;6.00;;;4.70;;
65230;SDS011;51813;40.666;16.602;2024-02-21T13:13:29;5.88;;;4.45;;
65230;SDS011;51813;40.666;16.602;2024-02-21T13:15:56;7.22;;;4.60;;
65230;SDS011;51813;40.666;16.602;2024-02-21T13:18:25;7.05;;;4.20;;
65230;SDS011;51813;40.666;16.602;2024-02-21T13:20:51;6.88;;;4.72;;
65230;SDS011;51813;40.666;16.602;2024-02-21T13:23:16;5.95;;;4.25;;
65230;SDS011;51813;40.666;16.602;2024-02-21T13:25:42;6.78;;;4.40;;
65230;SDS011;51813;40.666;16.602;2024-02-21T13:28:09;7.35;;;4.70;;
65230;SDS011;51813;40.666;16.602;2024-02-21T13:30:35;6.00;;;4.70;;
65230;SDS011;51813;40.666;16.602;2024-02-21T13:33:00;6.45;;;4.32;;
65230;SDS011;51813;40.666;16.602;2024-02-21T13:35:28;8.07;;;4.72;;
65230;SDS011;51813;40.666;16.602;2024-02-21T13:37:53;6.63;;;4.72;;
65230;SDS011;51813;40.666;16.602;2024-02-21T13:40:19;7.03;;;4.78;;
65230;SDS011;51813;40.666;16.602;2024-02-21T13:42:45;5.82;;;4.43;;
65230;SDS011;51813;40.666;16.602;2024-02-21T13:45:11;7.38;;;4.60;;
65230;SDS011;51813;40.666;16.602;2024-02-21T13:47:36;6.97;;;4.45;;
65230;SDS011;51813;40.666;16.602;2024-02-21T13:50:03;6.50;;;4.93;;
65230;SDS011;51813;40.666;16.602;2024-02-21T13:52:30;5.82;;;4.10;;
65230;SDS011;51813;40.666;16.602;2024-02-21T13:54:56;6.22;;;4.22;;
65230;SDS011;51813;40.666;16.602;2024-02-21T13:57:22;6.63;;;4.38;;
65230;SDS011;51813;40.666;16.602;2024-02-21T13:59:48;5.63;;;4.28;;
65230;SDS011;51813;40.666;16.602;2024-02-21T14:02:14;6.85;;;4.20;;
65230;SDS011;51813;40.666;16.602;2024-02-21T14:04:39;6.22;;;4.35;;
65230;SDS011;51813;40.666;16.602;2024-02-21T14:07:05;7.63;;;4.10;;
65230;SDS011;51813;40.666;16.602;2024-02-21T14:09:31;5.50;;;3.95;;
65230;SDS011;51813;40.666;16.602;2024-02-21T14:11:59;5.95;;;4.00;;
65230;SDS011;51813;40.666;16.602;2024-02-21T14:14:25;6.57;;;4.22;;
65230;SDS011;51813;40.666;16.602;2024-02-21T14:16:51;6.95;;;4.20;;
65230;SDS011;51813;40.666;16.602;2024-02-21T14:19:16;5.97;;;4.18;;
65230;SDS011;51813;40.666;16.602;2024-02-21T14:21:43;6.43;;;4.25;;
65230;SDS011;51813;40.666;16.602;2024-02-21T14:24:09;5.57;;;4.25;;
65230;SDS011;51813;40.666;16.602;2024-02-21T14:26:36;5.47;;;4.22;;
65230;SDS011;51813;40.666;16.602;2024-02-21T14:29:02;6.60;;;4.05;;
65230;SDS011;51813;40.666;16.602;2024-02-21T14:31:29;5.90;;;4.07;;
65230;SDS011;51813;40.666;16.602;2024-02-21T14:33:57;6.13;;;4.05;;